sensor_id;sensor_type;location;lat;lon;timestamp;P1;durP1;ratioP1;P2;durP2;ratioP2
14681;SDS011;7429;52.498;13.480;2023-05-08T00:00:56;8.00;;;7.33;;
14681;SDS011;7429;52.498;13.480;2023-05-08T00:03:59;8.17;;;7.37;;
14681;SDS011;7429;52.498;13.480;2023-05-08T00:07:03;9.77;;;8.40;;
14681;SDS011;7429;52.498;13.480;2023-05-08T00:10:06;8.63;;;7.93;;
14681;SDS011;7429;52.498;13.480;2023-05-08T00:13:13;8.40;;;7.70;;
14681;SDS011;7429;52.498;13.480;2023-05-08T00:16:16;8.87;;;7.90;;
14681;SDS011;7429;52.498;13.480;2023-05-08T00:19:20;9.20;;;8.23;;
14681;SDS011;7429;52.498;13.480;2023-05-08T00:22:25;11.03;;;8.97;;
14681;SDS011;7429;52.498;13.480;2023-05-08T00:25:29;8.67;;;7.87;;
14681;SDS011;7429;52.498;13.480;2023-05-08T00:28:33;9.60;;;8.80;;
14681;SDS011;7429;52.498;13.480;2023-05-08T00:31:37;10.83;;;9.93;;
14681;SDS011;7429;52.498;13.480;2023-05-08T00:34:40;10.37;;;9.37;;
14681;SDS011;7429;52.498;13.480;2023-05-08T00:37:44;10.63;;;9.63;;
14681;SDS011;7429;52.498;13.480;2023-05-08T00:40:47;13.43;;;12.17;;
14681;SDS011;7429;52.498;13.480;2023-05-08T00:43:51;12.43;;;11.33;;
14681;SDS011;7429;52.498;13.480;2023-05-08T00:46:55;10.83;;;9.93;;
14681;SDS011;7429;52.498;13.480;2023-05-08T00:49:58;11.47;;;10.47;;
14681;SDS011;7429;52.498;13.480;2023-05-08T00:53:02;11.17;;;10.03;;
14681;SDS011;7429;52.498;13.480;2023-05-08T00:56:06;10.93;;;9.93;;
14681;SDS011;7429;52.498;13.480;2023-05-08T00:59:15;9.33;;;8.47;;
14681;SDS011;7429;52.498;13.480;2023-05-08T01:02:18;10.73;;;9.73;;
14681;SDS011;7429;52.498;13.480;2023-05-08T01:05:22;13.17;;;12.17;;
14681;SDS011;7429;52.498;13.480;2023-05-08T01:08:25;12.57;;;11.47;;
14681;SDS011;7429;52.498;13.480;2023-05-08T01:11:30;12.67;;;11.40;;
14681;SDS011;7429;52.498;13.480;2023-05-08T01:14:53;11.77;;;10.77;;
14681;SDS011;7429;52.498;13.480;2023-05-08T01:18:12;10.57;;;9.43;;
14681;SDS011;7429;52.498;13.480;2023-05-08T01:21:21;11.70;;;10.70;;
14681;SDS011;7429;52.498;13.480;2023-05-08T01:24:41;10.70;;;9.80;;
14681;SDS011;7429;52.498;13.480;2023-05-08T01:28:31;9.23;;;8.43;;
14681;SDS011;7429;52.498;13.480;2023-05-08T01:32:16;9.47;;;8.67;;
14681;SDS011;7429;52.498;13.480;2023-05-08T01:35:25;10.83;;;9.83;;
14681;SDS011;7429;52.498;13.480;2023-05-08T01:38:34;10.57;;;9.57;;
14681;SDS011;7429;52.498;13.480;2023-05-08T01:41:49;10.00;;;9.00;;
14681;SDS011;7429;52.498;13.480;2023-05-08T01:45:03;10.47;;;9.50;;
14681;SDS011;7429;52.498;13.480;2023-05-08T01:48:18;10.40;;;9.30;;
14681;SDS011;7429;52.498;13.480;2023-05-08T01:51:26;10.87;;;9.80;;
14681;SDS011;7429;52.498;13.480;2023-05-08T01:54:43;11.10;;;10.00;;
14681;SDS011;7429;52.498;13.480;2023-05-08T01:57:54;10.67;;;9.77;;
14681;SDS011;7429;52.498;13.480;2023-05-08T02:00:59;12.60;;;10.87;;
14681;SDS011;7429;52.498;13.480;2023-05-08T02:04:05;10.40;;;9.50;;
14681;SDS011;7429;52.498;13.480;2023-05-08T02:07:10;10.37;;;9.37;;
14681;SDS011;7429;52.498;13.480;2023-05-08T02:10:14;11.73;;;8.57;;
14681;SDS011;7429;52.498;13.480;2023-05-08T02:13:19;9.73;;;8.57;;
14681;SDS011;7429;52.498;13.480;2023-05-08T02:16:24;10.57;;;9.57;;
14681;SDS011;7429;52.498;13.480;2023-05-08T02:19:30;10.60;;;9.50;;
14681;SDS011;7429;52.498;13.480;2023-05-08T02:22:34;10.33;;;9.37;;
14681;SDS011;7429;52.498;13.480;2023-05-08T02:25:38;10.00;;;9.00;;
14681;SDS011;7429;52.498;13.480;2023-05-08T02:28:43;10.23;;;9.20;;
14681;SDS011;7429;52.498;13.480;2023-05-08T02:31:47;10.40;;;9.47;;
14681;SDS011;7429;52.498;13.480;2023-05-08T02:34:53;10.57;;;9.27;;
14681;SDS011;7429;52.498;13.480;2023-05-08T02:38:04;10.63;;;9.63;;
14681;SDS011;7429;52.498;13.480;2023-05-08T02:41:11;9.87;;;8.97;;
14681;SDS011;7429;52.498;13.480;2023-05-08T02:44:18;9.80;;;8.77;;
14681;SDS011;7429;52.498;13.480;2023-05-08T02:47:22;10.17;;;9.20;;
14681;SDS011;7429;52.498;13.480;2023-05-08T02:50:34;10.97;;;9.83;;
14681;SDS011;7429;52.498;13.480;2023-05-08T02:53:44;10.13;;;9.13;;
14681;SDS011;7429;52.498;13.480;2023-05-08T02:56:55;10.57;;;9.50;;
14681;SDS011;7429;52.498;13.480;2023-05-08T03:00:02;11.03;;;10.03;;
14681;SDS011;7429;52.498;13.480;2023-05-08T03:03:16;10.40;;;9.37;;
14681;SDS011;7429;52.498;13.480;2023-05-08T03:06:26;11.07;;;10.03;;
14681;SDS011;7429;52.498;13.480;2023-05-08T03:09:38;10.60;;;9.60;;
14681;SDS011;7429;52.498;13.480;2023-05-08T03:12:47;10.47;;;9.47;;
14681;SDS011;7429;52.498;13.480;2023-05-08T03:15:57;10.57;;;9.67;;
14681;SDS011;7429;52.498;13.480;2023-05-08T03:19:04;11.40;;;10.30;;
14681;SDS011;7429;52.498;13.480;2023-05-08T03:22:15;11.57;;;10.03;;
14681;SDS011;7429;52.498;13.480;2023-05-08T03:25:22;11.97;;;10.53;;
14681;SDS011;7429;52.498;13.480;2023-05-08T03:28:26;11.03;;;9.93;;
14681;SDS011;7429;52.498;13.480;2023-05-08T03:31:32;11.97;;;9.80;;
14681;SDS011;7429;52.498;13.480;2023-05-08T03:34:37;11.93;;;9.97;;
14681;SDS011;7429;52.498;13.480;2023-05-08T03:37:43;12.67;;;10.57;;
14681;SDS011;7429;52.498;13.480;2023-05-08T03:40:47;11.17;;;10.27;;
14681;SDS011;7429;52.498;13.480;2023-05-08T03:43:51;18.07;;;10.47;;
14681;SDS011;7429;52.498;13.480;2023-05-08T03:46:55;11.87;;;10.67;;
14681;SDS011;7429;52.498;13.480;2023-05-08T03:50:00;11.73;;;10.13;;
14681;SDS011;7429;52.498;13.480;2023-05-08T03:53:06;10.93;;;9.83;;
14681;SDS011;7429;52.498;13.480;2023-05-08T03:56:09;12.30;;;11.10;;
14681;SDS011;7429;52.498;13.480;2023-05-08T03:59:13;13.30;;;11.87;;
14681;SDS011;7429;52.498;13.480;2023-05-08T04:02:27;11.37;;;10.07;;
14681;SDS011;7429;52.498;13.480;2023-05-08T04:05:46;12.03;;;10.83;;
14681;SDS011;7429;52.498;13.480;2023-05-08T04:09:03;11.37;;;10.27;;
14681;SDS011;7429;52.498;13.480;2023-05-08T04:12:13;13.00;;;11.20;;
14681;SDS011;7429;52.498;13.480;2023-05-08T04:15:20;13.90;;;11.63;;
14681;SDS011;7429;52.498;13.480;2023-05-08T04:18:27;11.90;;;10.70;;
14681;SDS011;7429;52.498;13.480;2023-05-08T04:21:34;12.10;;;10.90;;
14681;SDS011;7429;52.498;13.480;2023-05-08T04:24:41;13.90;;;12.40;;
14681;SDS011;7429;52.498;13.480;2023-05-08T04:27:50;13.27;;;11.97;;
14681;SDS011;7429;52.498;13.480;2023-05-08T04:30:56;14.50;;;12.23;;
14681;SDS011;7429;52.498;13.480;2023-05-08T04:34:01;12.37;;;11.07;;
14681;SDS011;7429;52.498;13.480;2023-05-08T04:37:05;13.43;;;11.70;;
14681;SDS011;7429;52.498;13.480;2023-05-08T04:40:11;13.10;;;11.70;;
14681;SDS011;7429;52.498;13.480;2023-05-08T04:43:16;13.10;;;10.67;;
14681;SDS011;7429;52.498;13.480;2023-05-08T04:46:19;12.40;;;11.13;;
14681;SDS011;7429;52.498;13.480;2023-05-08T04:49:22;12.10;;;10.90;;
14681;SDS011;7429;52.498;13.480;2023-05-08T04:52:25;11.27;;;10.07;;
14681;SDS011;7429;52.498;13.480;2023-05-08T04:55:30;12.27;;;10.97;;
14681;SDS011;7429;52.498;13.480;2023-05-08T04:58:33;11.70;;;10.53;;
14681;SDS011;7429;52.498;13.480;2023-05-08T05:01:36;12.67;;;10.10;;
14681;SDS011;7429;52.498;13.480;2023-05-08T05:04:41;11.80;;;10.63;;
14681;SDS011;7429;52.498;13.480;2023-05-08T05:07:44;11.00;;;9.93;;
14681;SDS011;7429;52.498;13.480;2023-05-08T05:10:49;11.30;;;10.00;;
14681;SDS011;7429;52.498;13.480;2023-05-08T05:13:52;13.30;;;9.50;;
14681;SDS011;7429;52.498;13.480;2023-05-08T05:16:56;10.63;;;9.53;;
14681;SDS011;7429;52.498;13.480;2023-05-08T05:20:03;10.70;;;9.60;;
14681;SDS011;7429;52.498;13.480;2023-05-08T05:23:09;10.07;;;9.07;;
14681;SDS011;7429;52.498;13.480;2023-05-08T05:26:14;10.53;;;9.53;;
14681;SDS011;7429;52.498;13.480;2023-05-08T05:29:18;11.33;;;8.80;;
14681;SDS011;7429;52.498;13.480;2023-05-08T05:32:22;10.60;;;9.60;;
14681;SDS011;7429;52.498;13.480;2023-05-08T05:35:25;11.43;;;9.30;;
14681;SDS011;7429;52.498;13.480;2023-05-08T05:38:30;10.40;;;9.10;;
14681;SDS011;7429;52.498;13.480;2023-05-08T05:41:35;9.33;;;8.43;;
14681;SDS011;7429;52.498;13.480;2023-05-08T05:44:38;8.80;;;7.97;;
14681;SDS011;7429;52.498;13.480;2023-05-08T05:47:43;8.80;;;7.77;;
14681;SDS011;7429;52.498;13.480;2023-05-08T05:50:48;8.53;;;7.83;;
14681;SDS011;7429;52.498;13.480;2023-05-08T05:53:51;8.80;;;7.90;;
14681;SDS011;7429;52.498;13.480;2023-05-08T05:56:57;8.83;;;8.00;;
14681;SDS011;7429;52.498;13.480;2023-05-08T06:00:00;8.60;;;7.70;;
14681;SDS011;7429;52.498;13.480;2023-05-08T06:03:05;10.40;;;6.90;;
14681;SDS011;7429;52.498;13.480;2023-05-08T06:38:46;6.50;;;5.80;;
14681;SDS011;7429;52.498;13.480;2023-05-08T06:41:52;6.00;;;5.37;;
14681;SDS011;7429;52.498;13.480;2023-05-08T06:45:13;6.77;;;6.00;;
14681;SDS011;7429;52.498;13.480;2023-05-08T06:48:20;6.30;;;5.70;;
14681;SDS011;7429;52.498;13.480;2023-05-08T06:51:29;6.53;;;5.90;;
14681;SDS011;7429;52.498;13.480;2023-05-08T06:54:33;6.33;;;5.73;;
14681;SDS011;7429;52.498;13.480;2023-05-08T06:57:41;5.73;;;5.23;;
14681;SDS011;7429;52.498;13.480;2023-05-08T07:00:53;6.63;;;5.70;;
14681;SDS011;7429;52.498;13.480;2023-05-08T07:03:56;6.37;;;5.60;;
14681;SDS011;7429;52.498;13.480;2023-05-08T07:07:01;5.90;;;5.40;;
14681;SDS011;7429;52.498;13.480;2023-05-08T07:10:07;5.43;;;4.93;;
14681;SDS011;7429;52.498;13.480;2023-05-08T07:13:17;5.40;;;5.00;;
14681;SDS011;7429;52.498;13.480;2023-05-08T07:16:26;5.97;;;5.33;;
14681;SDS011;7429;52.498;13.480;2023-05-08T07:19:33;6.10;;;5.50;;
14681;SDS011;7429;52.498;13.480;2023-05-08T07:22:41;4.77;;;4.20;;
14681;SDS011;7429;52.498;13.480;2023-05-08T07:25:51;5.73;;;5.23;;
14681;SDS011;7429;52.498;13.480;2023-05-08T07:28:57;5.30;;;4.80;;
14681;SDS011;7429;52.498;13.480;2023-05-08T07:32:02;5.50;;;5.00;;
14681;SDS011;7429;52.498;13.480;2023-05-08T07:35:10;7.30;;;4.13;;
14681;SDS011;7429;52.498;13.480;2023-05-08T07:38:23;5.60;;;4.97;;
14681;SDS011;7429;52.498;13.480;2023-05-08T07:41:29;5.63;;;5.10;;
14681;SDS011;7429;52.498;13.480;2023-05-08T07:44:41;5.37;;;4.87;;
14681;SDS011;7429;52.498;13.480;2023-05-08T07:48:03;5.87;;;5.43;;
14681;SDS011;7429;52.498;13.480;2023-05-08T07:51:20;5.40;;;4.90;;
14681;SDS011;7429;52.498;13.480;2023-05-08T07:54:33;6.40;;;4.33;;
14681;SDS011;7429;52.498;13.480;2023-05-08T07:57:47;6.57;;;4.83;;
14681;SDS011;7429;52.498;13.480;2023-05-08T08:00:56;7.13;;;4.83;;
14681;SDS011;7429;52.498;13.480;2023-05-08T08:04:05;5.20;;;4.70;;
14681;SDS011;7429;52.498;13.480;2023-05-08T08:07:11;5.97;;;5.10;;
14681;SDS011;7429;52.498;13.480;2023-05-08T08:10:21;5.00;;;4.43;;
14681;SDS011;7429;52.498;13.480;2023-05-08T08:13:25;4.33;;;3.87;;
14681;SDS011;7429;52.498;13.480;2023-05-08T08:16:33;4.03;;;3.73;;
14681;SDS011;7429;52.498;13.480;2023-05-08T08:23:03;5.43;;;4.40;;
14681;SDS011;7429;52.498;13.480;2023-05-08T08:26:11;5.10;;;4.70;;
14681;SDS011;7429;52.498;13.480;2023-05-08T08:29:17;4.87;;;4.47;;
14681;SDS011;7429;52.498;13.480;2023-05-08T08:32:36;4.00;;;3.70;;
14681;SDS011;7429;52.498;13.480;2023-05-08T08:35:54;6.07;;;4.27;;
14681;SDS011;7429;52.498;13.480;2023-05-08T08:38:57;7.07;;;4.27;;
14681;SDS011;7429;52.498;13.480;2023-05-08T08:42:03;5.10;;;4.10;;
14681;SDS011;7429;52.498;13.480;2023-05-08T08:45:09;4.80;;;4.07;;
14681;SDS011;7429;52.498;13.480;2023-05-08T08:48:13;4.23;;;3.83;;
14681;SDS011;7429;52.498;13.480;2023-05-08T08:51:24;6.07;;;4.00;;
14681;SDS011;7429;52.498;13.480;2023-05-08T08:54:29;4.33;;;4.00;;
14681;SDS011;7429;52.498;13.480;2023-05-08T08:58:01;9.77;;;4.23;;
14681;SDS011;7429;52.498;13.480;2023-05-08T09:01:28;6.90;;;4.23;;
14681;SDS011;7429;52.498;13.480;2023-05-08T09:04:49;5.17;;;4.67;;
14681;SDS011;7429;52.498;13.480;2023-05-08T09:08:01;4.50;;;4.10;;
14681;SDS011;7429;52.498;13.480;2023-05-08T09:11:13;6.53;;;4.30;;
14681;SDS011;7429;52.498;13.480;2023-05-08T09:14:20;4.33;;;4.03;;
14681;SDS011;7429;52.498;13.480;2023-05-08T09:17:41;8.67;;;4.17;;
14681;SDS011;7429;52.498;13.480;2023-05-08T09:21:31;8.07;;;4.10;;
14681;SDS011;7429;52.498;13.480;2023-05-08T09:24:56;5.87;;;3.83;;
14681;SDS011;7429;52.498;13.480;2023-05-08T09:28:14;8.10;;;3.97;;
14681;SDS011;7429;52.498;13.480;2023-05-08T09:31:20;4.50;;;4.10;;
14681;SDS011;7429;52.498;13.480;2023-05-08T09:34:57;5.03;;;3.78;;
14681;SDS011;7429;52.498;13.480;2023-05-08T09:38:25;6.22;;;3.72;;
14681;SDS011;7429;52.498;13.480;2023-05-08T09:41:55;6.82;;;3.80;;
14681;SDS011;7429;52.498;13.480;2023-05-08T09:45:26;5.75;;;4.00;;
14681;SDS011;7429;52.498;13.480;2023-05-08T09:48:36;4.22;;;3.80;;
14681;SDS011;7429;52.498;13.480;2023-05-08T09:51:41;6.07;;;3.80;;
14681;SDS011;7429;52.498;13.480;2023-05-08T09:54:57;4.15;;;3.75;;
14681;SDS011;7429;52.498;13.480;2023-05-08T09:58:12;3.90;;;3.60;;
14681;SDS011;7429;52.498;13.480;2023-05-08T10:01:26;4.32;;;3.92;;
14681;SDS011;7429;52.498;13.480;2023-05-08T10:04:41;4.22;;;3.92;;
14681;SDS011;7429;52.498;13.480;2023-05-08T10:07:53;3.90;;;3.55;;
14681;SDS011;7429;52.498;13.480;2023-05-08T10:11:14;3.72;;;2.95;;
14681;SDS011;7429;52.498;13.480;2023-05-08T10:14:30;5.05;;;3.22;;
14681;SDS011;7429;52.498;13.480;2023-05-08T10:17:37;3.60;;;3.30;;
14681;SDS011;7429;52.498;13.480;2023-05-08T10:20:53;9.10;;;3.03;;
14681;SDS011;7429;52.498;13.480;2023-05-08T10:24:05;3.88;;;3.58;;
14681;SDS011;7429;52.498;13.480;2023-05-08T10:27:33;3.88;;;3.58;;
14681;SDS011;7429;52.498;13.480;2023-05-08T10:30:50;3.60;;;3.30;;
14681;SDS011;7429;52.498;13.480;2023-05-08T10:33:58;4.30;;;3.47;;
14681;SDS011;7429;52.498;13.480;2023-05-08T10:37:44;4.28;;;3.50;;
14681;SDS011;7429;52.498;13.480;2023-05-08T10:40:39;3.92;;;3.63;;
14681;SDS011;7429;52.498;13.480;2023-05-08T10:44:06;8.95;;;3.80;;
14681;SDS011;7429;52.498;13.480;2023-05-08T10:47:25;5.45;;;3.53;;
14681;SDS011;7429;52.498;13.480;2023-05-08T10:50:41;4.25;;;3.30;;
14681;SDS011;7429;52.498;13.480;2023-05-08T10:53:58;5.65;;;3.47;;
14681;SDS011;7429;52.498;13.480;2023-05-08T10:57:13;5.10;;;3.35;;
14681;SDS011;7429;52.498;13.480;2023-05-08T11:00:31;4.03;;;3.72;;
14681;SDS011;7429;52.498;13.480;2023-05-08T11:04:19;6.13;;;3.50;;
14681;SDS011;7429;52.498;13.480;2023-05-08T11:07:29;2.85;;;2.58;;
14681;SDS011;7429;52.498;13.480;2023-05-08T11:11:34;7.03;;;3.28;;
14681;SDS011;7429;52.498;13.480;2023-05-08T11:15:09;4.63;;;3.38;;
14681;SDS011;7429;52.498;13.480;2023-05-08T11:18:16;4.25;;;2.95;;
14681;SDS011;7429;52.498;13.480;2023-05-08T11:25:20;4.55;;;3.08;;
14681;SDS011;7429;52.498;13.480;2023-05-08T11:29:14;5.63;;;3.55;;
14681;SDS011;7429;52.498;13.480;2023-05-08T11:36:38;5.00;;;3.15;;
14681;SDS011;7429;52.498;13.480;2023-05-08T11:39:48;3.28;;;2.97;;
14681;SDS011;7429;52.498;13.480;2023-05-08T11:42:57;4.20;;;3.47;;
14681;SDS011;7429;52.498;13.480;2023-05-08T11:46:22;4.78;;;3.35;;
14681;SDS011;7429;52.498;13.480;2023-05-08T11:49:44;4.70;;;3.65;;
14681;SDS011;7429;52.498;13.480;2023-05-08T11:56:31;4.95;;;3.28;;
14681;SDS011;7429;52.498;13.480;2023-05-08T12:14:02;3.53;;;3.22;;
14681;SDS011;7429;52.498;13.480;2023-05-08T12:17:26;5.10;;;3.08;;
14681;SDS011;7429;52.498;13.480;2023-05-08T12:20:58;3.17;;;2.97;;
14681;SDS011;7429;52.498;13.480;2023-05-08T12:24:38;3.20;;;2.90;;
14681;SDS011;7429;52.498;13.480;2023-05-08T12:28:17;3.75;;;3.03;;
14681;SDS011;7429;52.498;13.480;2023-05-08T12:31:40;4.47;;;3.33;;
14681;SDS011;7429;52.498;13.480;2023-05-08T12:34:57;3.50;;;3.20;;
14681;SDS011;7429;52.498;13.480;2023-05-08T12:38:07;3.90;;;3.60;;
14681;SDS011;7429;52.498;13.480;2023-05-08T12:41:42;4.80;;;3.20;;
14681;SDS011;7429;52.498;13.480;2023-05-08T12:44:56;5.43;;;3.20;;
14681;SDS011;7429;52.498;13.480;2023-05-08T12:48:05;3.40;;;2.90;;
14681;SDS011;7429;52.498;13.480;2023-05-08T12:51:11;7.75;;;3.30;;
14681;SDS011;7429;52.498;13.480;2023-05-08T12:54:47;4.05;;;2.75;;
14681;SDS011;7429;52.498;13.480;2023-05-08T12:57:58;3.25;;;3.03;;
14681;SDS011;7429;52.498;13.480;2023-05-08T14:05:27;4.82;;;3.03;;
14681;SDS011;7429;52.498;13.480;2023-05-08T14:08:30;3.70;;;2.88;;
14681;SDS011;7429;52.498;13.480;2023-05-08T14:11:37;5.28;;;3.10;;
14681;SDS011;7429;52.498;13.480;2023-05-08T14:14:41;4.78;;;2.80;;
14681;SDS011;7429;52.498;13.480;2023-05-08T14:17:44;2.67;;;2.47;;
14681;SDS011;7429;52.498;13.480;2023-05-08T14:20:48;8.30;;;2.92;;
14681;SDS011;7429;52.498;13.480;2023-05-08T14:23:58;4.88;;;2.85;;
14681;SDS011;7429;52.498;13.480;2023-05-08T14:27:07;6.18;;;2.63;;
14681;SDS011;7429;52.498;13.480;2023-05-08T14:30:11;3.10;;;2.90;;
14681;SDS011;7429;52.498;13.480;2023-05-08T14:33:17;3.50;;;3.20;;
14681;SDS011;7429;52.498;13.480;2023-05-08T14:36:22;5.05;;;3.47;;
14681;SDS011;7429;52.498;13.480;2023-05-08T14:39:25;6.28;;;3.17;;
14681;SDS011;7429;52.498;13.480;2023-05-08T14:42:33;2.90;;;2.60;;
14681;SDS011;7429;52.498;13.480;2023-05-08T14:45:39;3.45;;;2.78;;
14681;SDS011;7429;52.498;13.480;2023-05-08T14:48:47;3.90;;;2.75;;
14681;SDS011;7429;52.498;13.480;2023-05-08T14:51:52;6.47;;;2.97;;
14681;SDS011;7429;52.498;13.480;2023-05-08T14:55:00;3.20;;;3.00;;
14681;SDS011;7429;52.498;13.480;2023-05-08T14:58:04;3.90;;;3.08;;
14681;SDS011;7429;52.498;13.480;2023-05-08T15:01:10;3.58;;;3.28;;
14681;SDS011;7429;52.498;13.480;2023-05-08T15:04:16;4.25;;;3.30;;
14681;SDS011;7429;52.498;13.480;2023-05-08T15:07:27;5.28;;;3.17;;
14681;SDS011;7429;52.498;13.480;2023-05-08T15:10:30;3.40;;;3.10;;
14681;SDS011;7429;52.498;13.480;2023-05-08T15:13:34;3.70;;;3.00;;
14681;SDS011;7429;52.498;13.480;2023-05-08T15:16:37;3.83;;;3.47;;
14681;SDS011;7429;52.498;13.480;2023-05-08T15:19:50;6.10;;;3.40;;
14681;SDS011;7429;52.498;13.480;2023-05-08T15:23:11;6.13;;;3.47;;
14681;SDS011;7429;52.498;13.480;2023-05-08T15:27:02;5.90;;;3.17;;
14681;SDS011;7429;52.498;13.480;2023-05-08T15:30:09;3.83;;;3.40;;
14681;SDS011;7429;52.498;13.480;2023-05-08T15:33:19;6.72;;;3.60;;
14681;SDS011;7429;52.498;13.480;2023-05-08T15:36:25;2.97;;;2.78;;
14681;SDS011;7429;52.498;13.480;2023-05-08T15:39:35;4.07;;;3.03;;
14681;SDS011;7429;52.498;13.480;2023-05-08T15:42:40;3.13;;;2.83;;
14681;SDS011;7429;52.498;13.480;2023-05-08T15:45:46;4.35;;;3.58;;
14681;SDS011;7429;52.498;13.480;2023-05-08T15:48:50;3.08;;;2.83;;
14681;SDS011;7429;52.498;13.480;2023-05-08T15:52:09;7.45;;;3.28;;
14681;SDS011;7429;52.498;13.480;2023-05-08T15:55:13;3.28;;;3.03;;
14681;SDS011;7429;52.498;13.480;2023-05-08T15:58:20;5.38;;;3.13;;
14681;SDS011;7429;52.498;13.480;2023-05-08T16:01:23;3.95;;;3.50;;
14681;SDS011;7429;52.498;13.480;2023-05-08T16:04:29;4.60;;;3.47;;
14681;SDS011;7429;52.498;13.480;2023-05-08T16:07:33;4.03;;;3.50;;
14681;SDS011;7429;52.498;13.480;2023-05-08T16:10:41;5.70;;;3.50;;
14681;SDS011;7429;52.498;13.480;2023-05-08T16:13:48;5.43;;;3.70;;
14681;SDS011;7429;52.498;13.480;2023-05-08T16:16:54;4.15;;;3.03;;
14681;SDS011;7429;52.498;13.480;2023-05-08T16:19:57;3.72;;;3.42;;
14681;SDS011;7429;52.498;13.480;2023-05-08T16:23:04;4.97;;;3.40;;
14681;SDS011;7429;52.498;13.480;2023-05-08T16:26:08;4.20;;;3.80;;
14681;SDS011;7429;52.498;13.480;2023-05-08T16:29:15;7.25;;;3.42;;
14681;SDS011;7429;52.498;13.480;2023-05-08T16:32:19;6.70;;;4.10;;
14681;SDS011;7429;52.498;13.480;2023-05-08T16:35:24;4.13;;;3.28;;
14681;SDS011;7429;52.498;13.480;2023-05-08T16:38:27;3.97;;;3.58;;
14681;SDS011;7429;52.498;13.480;2023-05-08T16:41:34;4.25;;;3.65;;
14681;SDS011;7429;52.498;13.480;2023-05-08T16:44:39;6.03;;;4.28;;
14681;SDS011;7429;52.498;13.480;2023-05-08T16:47:43;3.40;;;3.10;;
14681;SDS011;7429;52.498;13.480;2023-05-08T16:50:46;4.20;;;3.78;;
14681;SDS011;7429;52.498;13.480;2023-05-08T16:53:49;4.53;;;3.80;;
14681;SDS011;7429;52.498;13.480;2023-05-08T16:56:54;4.50;;;3.70;;
14681;SDS011;7429;52.498;13.480;2023-05-08T17:00:01;3.60;;;3.35;;
14681;SDS011;7429;52.498;13.480;2023-05-08T17:03:07;4.78;;;3.60;;
14681;SDS011;7429;52.498;13.480;2023-05-08T17:06:10;6.30;;;4.15;;
14681;SDS011;7429;52.498;13.480;2023-05-08T17:09:13;4.47;;;4.10;;
14681;SDS011;7429;52.498;13.480;2023-05-08T17:12:20;3.80;;;3.47;;
14681;SDS011;7429;52.498;13.480;2023-05-08T17:15:22;5.93;;;3.72;;
14681;SDS011;7429;52.498;13.480;2023-05-08T17:18:25;3.80;;;3.50;;
14681;SDS011;7429;52.498;13.480;2023-05-08T17:21:28;3.92;;;3.53;;
14681;SDS011;7429;52.498;13.480;2023-05-08T17:24:32;5.10;;;3.60;;
14681;SDS011;7429;52.498;13.480;2023-05-08T17:27:38;5.40;;;3.92;;
14681;SDS011;7429;52.498;13.480;2023-05-08T17:30:42;5.70;;;3.95;;
14681;SDS011;7429;52.498;13.480;2023-05-08T17:33:46;5.07;;;3.97;;
14681;SDS011;7429;52.498;13.480;2023-05-08T17:36:49;5.63;;;3.33;;
14681;SDS011;7429;52.498;13.480;2023-05-08T17:39:55;3.92;;;3.63;;
14681;SDS011;7429;52.498;13.480;2023-05-08T17:43:02;9.70;;;3.90;;
14681;SDS011;7429;52.498;13.480;2023-05-08T17:46:06;4.57;;;3.00;;
14681;SDS011;7429;52.498;13.480;2023-05-08T17:49:09;4.55;;;3.60;;
14681;SDS011;7429;52.498;13.480;2023-05-08T17:52:13;7.75;;;3.65;;
14681;SDS011;7429;52.498;13.480;2023-05-08T17:55:16;5.35;;;3.90;;
14681;SDS011;7429;52.498;13.480;2023-05-08T17:58:21;5.35;;;3.10;;
14681;SDS011;7429;52.498;13.480;2023-05-08T18:01:25;8.98;;;4.00;;
14681;SDS011;7429;52.498;13.480;2023-05-08T18:04:29;5.72;;;3.90;;
14681;SDS011;7429;52.498;13.480;2023-05-08T18:07:34;4.10;;;3.80;;
14681;SDS011;7429;52.498;13.480;2023-05-08T18:10:41;4.75;;;3.92;;
14681;SDS011;7429;52.498;13.480;2023-05-08T18:13:45;9.48;;;3.47;;
14681;SDS011;7429;52.498;13.480;2023-05-08T18:16:48;5.05;;;3.67;;
14681;SDS011;7429;52.498;13.480;2023-05-08T18:19:51;4.30;;;3.70;;
14681;SDS011;7429;52.498;13.480;2023-05-08T18:22:54;5.10;;;4.50;;
14681;SDS011;7429;52.498;13.480;2023-05-08T18:25:57;5.82;;;3.65;;
14681;SDS011;7429;52.498;13.480;2023-05-08T18:29:02;7.30;;;3.63;;
14681;SDS011;7429;52.498;13.480;2023-05-08T18:32:08;4.03;;;3.72;;
14681;SDS011;7429;52.498;13.480;2023-05-08T18:35:12;4.43;;;3.55;;
14681;SDS011;7429;52.498;13.480;2023-05-08T18:38:15;9.57;;;3.60;;
14681;SDS011;7429;52.498;13.480;2023-05-08T18:41:18;6.95;;;4.18;;
14681;SDS011;7429;52.498;13.480;2023-05-08T18:44:23;6.95;;;3.78;;
14681;SDS011;7429;52.498;13.480;2023-05-08T18:47:26;6.70;;;3.88;;
14681;SDS011;7429;52.498;13.480;2023-05-08T18:50:29;4.70;;;3.85;;
14681;SDS011;7429;52.498;13.480;2023-05-08T18:53:32;6.10;;;4.13;;
14681;SDS011;7429;52.498;13.480;2023-05-08T18:56:39;6.75;;;4.45;;
14681;SDS011;7429;52.498;13.480;2023-05-08T18:59:43;4.37;;;3.97;;
14681;SDS011;7429;52.498;13.480;2023-05-08T19:02:46;4.67;;;4.23;;
14681;SDS011;7429;52.498;13.480;2023-05-08T19:05:49;4.83;;;4.27;;
14681;SDS011;7429;52.498;13.480;2023-05-08T19:08:52;4.90;;;4.40;;
14681;SDS011;7429;52.498;13.480;2023-05-08T19:11:56;8.70;;;4.30;;
14681;SDS011;7429;52.498;13.480;2023-05-08T19:15:00;4.63;;;4.23;;
14681;SDS011;7429;52.498;13.480;2023-05-08T19:18:04;5.20;;;3.90;;
14681;SDS011;7429;52.498;13.480;2023-05-08T19:21:07;4.00;;;3.70;;
14681;SDS011;7429;52.498;13.480;2023-05-08T19:24:10;5.83;;;4.23;;
14681;SDS011;7429;52.498;13.480;2023-05-08T19:27:17;5.63;;;4.10;;
14681;SDS011;7429;52.498;13.480;2023-05-08T19:30:21;6.47;;;4.27;;
14681;SDS011;7429;52.498;13.480;2023-05-08T19:33:24;6.60;;;4.63;;
14681;SDS011;7429;52.498;13.480;2023-05-08T19:36:28;5.37;;;3.93;;
14681;SDS011;7429;52.498;13.480;2023-05-08T19:39:37;5.60;;;4.80;;
14681;SDS011;7429;52.498;13.480;2023-05-08T19:42:40;4.70;;;3.87;;
14681;SDS011;7429;52.498;13.480;2023-05-08T19:45:45;6.70;;;4.53;;
14681;SDS011;7429;52.498;13.480;2023-05-08T19:48:48;4.77;;;4.27;;
14681;SDS011;7429;52.498;13.480;2023-05-08T19:51:51;4.83;;;4.37;;
14681;SDS011;7429;52.498;13.480;2023-05-08T19:54:55;5.43;;;4.90;;
14681;SDS011;7429;52.498;13.480;2023-05-08T19:57:58;8.67;;;4.87;;
14681;SDS011;7429;52.498;13.480;2023-05-08T20:01:07;6.60;;;4.90;;
14681;SDS011;7429;52.498;13.480;2023-05-08T20:04:10;7.33;;;4.63;;
14681;SDS011;7429;52.498;13.480;2023-05-08T20:07:13;5.33;;;4.50;;
14681;SDS011;7429;52.498;13.480;2023-05-08T20:10:17;5.17;;;4.30;;
14681;SDS011;7429;52.498;13.480;2023-05-08T20:13:20;5.30;;;4.70;;
14681;SDS011;7429;52.498;13.480;2023-05-08T20:16:24;5.00;;;4.60;;
14681;SDS011;7429;52.498;13.480;2023-05-08T20:19:28;7.73;;;4.97;;
14681;SDS011;7429;52.498;13.480;2023-05-08T20:22:33;5.53;;;5.03;;
14681;SDS011;7429;52.498;13.480;2023-05-08T20:25:36;8.57;;;4.60;;
14681;SDS011;7429;52.498;13.480;2023-05-08T20:28:39;5.10;;;4.70;;
14681;SDS011;7429;52.498;13.480;2023-05-08T20:31:45;6.30;;;4.20;;
14681;SDS011;7429;52.498;13.480;2023-05-08T20:34:48;5.43;;;4.93;;
14681;SDS011;7429;52.498;13.480;2023-05-08T20:37:53;6.30;;;4.70;;
14681;SDS011;7429;52.498;13.480;2023-05-08T20:40:56;4.60;;;4.05;;
14681;SDS011;7429;52.498;13.480;2023-05-08T20:44:01;5.57;;;4.70;;
14681;SDS011;7429;52.498;13.480;2023-05-08T20:47:06;5.03;;;4.57;;
14681;SDS011;7429;52.498;13.480;2023-05-08T20:50:09;8.20;;;5.00;;
14681;SDS011;7429;52.498;13.480;2023-05-08T20:53:12;7.27;;;5.17;;
14681;SDS011;7429;52.498;13.480;2023-05-08T20:56:15;6.33;;;4.53;;
14681;SDS011;7429;52.498;13.480;2023-05-08T20:59:19;5.10;;;4.60;;